Terminal Aerodrome Forecast
Issued by NWS

Home | Current Version | Previous Version | Text Only | Print | Product List | Glossary Off
Versions: 1 2 3 4 5 6 7 8 9 10 11 12 13 14 15 16 17 18

000
FTUS43 KABR 172300
TAFMBG
TAF
KMBG 172323Z 1800/1824 16013G21KT P6SM SCT040 SCT070
     FM180600 12018G26KT P6SM VCSH OVC080
     FM180900 14020G28KT P6SM BKN150=

USA.gov is the U.S. government's official web portal to all federal, state and local government web resources and services.